sensor_id;sensor_type;location;lat;lon;timestamp;temperature;humidity
30825;DHT22;17550;45.486;12.222;2022-12-29T00:01:08;8.70;99.90
30825;DHT22;17550;45.486;12.222;2022-12-29T00:03:34;8.70;99.90
30825;DHT22;17550;45.486;12.222;2022-12-29T00:06:00;8.70;99.90
30825;DHT22;17550;45.486;12.222;2022-12-29T00:08:26;8.60;99.90
30825;DHT22;17550;45.486;12.222;2022-12-29T00:11:08;8.60;99.90
30825;DHT22;17550;45.486;12.222;2022-12-29T00:13:34;8.70;99.90
30825;DHT22;17550;45.486;12.222;2022-12-29T00:16:19;8.80;99.90
30825;DHT22;17550;45.486;12.222;2022-12-29T00:18:44;8.80;99.90
30825;DHT22;17550;45.486;12.222;2022-12-29T00:21:17;8.70;99.90
30825;DHT22;17550;45.486;12.222;2022-12-29T00:24:02;8.70;99.90
30825;DHT22;17550;45.486;12.222;2022-12-29T00:29:50;8.40;99.90
30825;DHT22;17550;45.486;12.222;2022-12-29T00:32:34;8.30;99.90
30825;DHT22;17550;45.486;12.222;2022-12-29T00:35:39;8.30;99.90
30825;DHT22;17550;45.486;12.222;2022-12-29T00:38:08;8.20;99.90
30825;DHT22;17550;45.486;12.222;2022-12-29T00:40:52;8.20;99.90
30825;DHT22;17550;45.486;12.222;2022-12-29T00:43:37;8.20;99.90
30825;DHT22;17550;45.486;12.222;2022-12-29T00:46:21;8.30;99.90
30825;DHT22;17550;45.486;12.222;2022-12-29T00:48:46;8.30;99.90
30825;DHT22;17550;45.486;12.222;2022-12-29T00:51:30;8.30;99.90
30825;DHT22;17550;45.486;12.222;2022-12-29T00:53:56;8.30;99.90
30825;DHT22;17550;45.486;12.222;2022-12-29T00:56:22;8.30;99.90
30825;DHT22;17550;45.486;12.222;2022-12-29T00:58:47;8.40;99.90
30825;DHT22;17550;45.486;12.222;2022-12-29T01:01:13;8.40;99.90
30825;DHT22;17550;45.486;12.222;2022-12-29T01:03:39;8.40;99.90
30825;DHT22;17550;45.486;12.222;2022-12-29T01:06:07;8.40;99.90
30825;DHT22;17550;45.486;12.222;2022-12-29T01:08:33;8.50;99.90
30825;DHT22;17550;45.486;12.222;2022-12-29T01:11:03;8.50;99.90
30825;DHT22;17550;45.486;12.222;2022-12-29T01:13:29;8.60;99.90
30825;DHT22;17550;45.486;12.222;2022-12-29T01:15:55;8.60;99.90
30825;DHT22;17550;45.486;12.222;2022-12-29T01:18:22;8.60;99.90
30825;DHT22;17550;45.486;12.222;2022-12-29T01:20:48;8.70;99.90
30825;DHT22;17550;45.486;12.222;2022-12-29T01:23:14;8.70;99.90
30825;DHT22;17550;45.486;12.222;2022-12-29T01:25:40;8.70;99.90
30825;DHT22;17550;45.486;12.222;2022-12-29T01:28:06;8.70;99.90
30825;DHT22;17550;45.486;12.222;2022-12-29T01:30:34;8.70;99.90
30825;DHT22;17550;45.486;12.222;2022-12-29T01:33:00;8.70;99.90
30825;DHT22;17550;45.486;12.222;2022-12-29T01:35:26;8.70;99.90
30825;DHT22;17550;45.486;12.222;2022-12-29T01:37:52;8.70;99.90
30825;DHT22;17550;45.486;12.222;2022-12-29T01:40:18;8.70;99.90
30825;DHT22;17550;45.486;12.222;2022-12-29T01:42:43;8.70;99.90
30825;DHT22;17550;45.486;12.222;2022-12-29T01:45:13;8.50;99.90
30825;DHT22;17550;45.486;12.222;2022-12-29T01:48:03;8.40;99.90
30825;DHT22;17550;45.486;12.222;2022-12-29T01:50:29;8.40;99.90
30825;DHT22;17550;45.486;12.222;2022-12-29T01:52:58;8.30;99.90
30825;DHT22;17550;45.486;12.222;2022-12-29T01:55:25;8.30;99.90
30825;DHT22;17550;45.486;12.222;2022-12-29T01:57:53;8.30;99.90
30825;DHT22;17550;45.486;12.222;2022-12-29T02:00:21;8.30;99.90
30825;DHT22;17550;45.486;12.222;2022-12-29T02:02:54;8.20;99.90
30825;DHT22;17550;45.486;12.222;2022-12-29T02:05:32;8.00;99.90
30825;DHT22;17550;45.486;12.222;2022-12-29T02:07:59;8.00;99.90
30825;DHT22;17550;45.486;12.222;2022-12-29T02:10:28;8.00;99.90
30825;DHT22;17550;45.486;12.222;2022-12-29T02:12:56;7.90;99.90
30825;DHT22;17550;45.486;12.222;2022-12-29T02:15:48;8.00;99.90
30825;DHT22;17550;45.486;12.222;2022-12-29T02:32:13;8.00;99.90
30825;DHT22;17550;45.486;12.222;2022-12-29T02:35:00;8.00;99.90
30825;DHT22;17550;45.486;12.222;2022-12-29T02:37:31;8.00;99.90
30825;DHT22;17550;45.486;12.222;2022-12-29T02:40:23;8.00;99.90
30825;DHT22;17550;45.486;12.222;2022-12-29T02:43:04;8.00;99.90
30825;DHT22;17550;45.486;12.222;2022-12-29T02:48:23;8.20;99.90
30825;DHT22;17550;45.486;12.222;2022-12-29T02:51:02;8.30;99.90
30825;DHT22;17550;45.486;12.222;2022-12-29T02:53:32;8.40;99.90
30825;DHT22;17550;45.486;12.222;2022-12-29T02:56:17;8.40;99.90
30825;DHT22;17550;45.486;12.222;2022-12-29T02:58:43;8.40;99.90
30825;DHT22;17550;45.486;12.222;2022-12-29T03:12:55;8.60;99.90
30825;DHT22;17550;45.486;12.222;2022-12-29T03:16:07;8.60;99.90
30825;DHT22;17550;45.486;12.222;2022-12-29T03:21:25;8.70;99.90
30825;DHT22;17550;45.486;12.222;2022-12-29T03:24:12;8.60;99.90
30825;DHT22;17550;45.486;12.222;2022-12-29T03:26:39;8.60;99.90
30825;DHT22;17550;45.486;12.222;2022-12-29T03:29:06;8.60;99.90
30825;DHT22;17550;45.486;12.222;2022-12-29T03:31:34;8.50;99.90
30825;DHT22;17550;45.486;12.222;2022-12-29T03:34:01;8.50;99.90
30825;DHT22;17550;45.486;12.222;2022-12-29T03:36:34;8.50;99.90
30825;DHT22;17550;45.486;12.222;2022-12-29T03:39:08;8.40;99.90
30825;DHT22;17550;45.486;12.222;2022-12-29T03:41:35;8.40;99.90
30825;DHT22;17550;45.486;12.222;2022-12-29T03:44:01;8.40;99.90
30825;DHT22;17550;45.486;12.222;2022-12-29T03:46:27;8.30;99.90
30825;DHT22;17550;45.486;12.222;2022-12-29T03:48:53;8.20;99.90
30825;DHT22;17550;45.486;12.222;2022-12-29T03:51:18;8.10;99.90
30825;DHT22;17550;45.486;12.222;2022-12-29T03:53:44;8.10;99.90
30825;DHT22;17550;45.486;12.222;2022-12-29T03:56:10;8.10;99.90
30825;DHT22;17550;45.486;12.222;2022-12-29T03:58:35;8.00;99.90
30825;DHT22;17550;45.486;12.222;2022-12-29T04:01:01;7.90;99.90
30825;DHT22;17550;45.486;12.222;2022-12-29T04:03:27;7.90;99.90
30825;DHT22;17550;45.486;12.222;2022-12-29T04:05:52;8.00;99.90
30825;DHT22;17550;45.486;12.222;2022-12-29T04:08:18;8.10;99.90
30825;DHT22;17550;45.486;12.222;2022-12-29T04:10:43;8.10;99.90
30825;DHT22;17550;45.486;12.222;2022-12-29T04:13:09;8.10;99.90
30825;DHT22;17550;45.486;12.222;2022-12-29T04:15:36;8.00;99.90
30825;DHT22;17550;45.486;12.222;2022-12-29T04:18:02;8.00;99.90
30825;DHT22;17550;45.486;12.222;2022-12-29T04:20:27;8.00;99.90
30825;DHT22;17550;45.486;12.222;2022-12-29T04:23:12;8.00;99.90
30825;DHT22;17550;45.486;12.222;2022-12-29T04:25:37;8.00;99.90
30825;DHT22;17550;45.486;12.222;2022-12-29T04:28:03;7.80;99.90
30825;DHT22;17550;45.486;12.222;2022-12-29T04:30:29;7.80;99.90
30825;DHT22;17550;45.486;12.222;2022-12-29T04:32:54;7.80;99.90
30825;DHT22;17550;45.486;12.222;2022-12-29T04:35:20;7.80;99.90
30825;DHT22;17550;45.486;12.222;2022-12-29T04:37:46;7.80;99.90
30825;DHT22;17550;45.486;12.222;2022-12-29T04:40:12;7.70;99.90
30825;DHT22;17550;45.486;12.222;2022-12-29T04:42:37;7.70;99.90
30825;DHT22;17550;45.486;12.222;2022-12-29T04:45:03;7.60;99.90
30825;DHT22;17550;45.486;12.222;2022-12-29T04:47:29;7.50;99.90
30825;DHT22;17550;45.486;12.222;2022-12-29T04:49:55;7.50;99.90
30825;DHT22;17550;45.486;12.222;2022-12-29T04:52:20;7.50;99.90
30825;DHT22;17550;45.486;12.222;2022-12-29T04:54:46;7.40;99.90
30825;DHT22;17550;45.486;12.222;2022-12-29T04:57:11;7.30;99.90
30825;DHT22;17550;45.486;12.222;2022-12-29T04:59:37;7.30;99.90
30825;DHT22;17550;45.486;12.222;2022-12-29T05:02:03;7.40;99.90
30825;DHT22;17550;45.486;12.222;2022-12-29T05:04:28;7.50;99.90
30825;DHT22;17550;45.486;12.222;2022-12-29T05:06:57;7.60;99.90
30825;DHT22;17550;45.486;12.222;2022-12-29T05:09:23;7.70;99.90
30825;DHT22;17550;45.486;12.222;2022-12-29T05:11:49;7.70;99.90
30825;DHT22;17550;45.486;12.222;2022-12-29T05:14:15;7.60;99.90
30825;DHT22;17550;45.486;12.222;2022-12-29T05:16:40;7.70;99.90
30825;DHT22;17550;45.486;12.222;2022-12-29T05:19:06;7.70;99.90
30825;DHT22;17550;45.486;12.222;2022-12-29T05:21:32;7.70;99.90
30825;DHT22;17550;45.486;12.222;2022-12-29T05:23:57;7.70;99.90
30825;DHT22;17550;45.486;12.222;2022-12-29T05:26:23;7.80;99.90
30825;DHT22;17550;45.486;12.222;2022-12-29T05:28:49;7.90;99.90
30825;DHT22;17550;45.486;12.222;2022-12-29T05:31:14;8.00;99.90
30825;DHT22;17550;45.486;12.222;2022-12-29T05:33:40;8.00;99.90
30825;DHT22;17550;45.486;12.222;2022-12-29T05:36:07;8.10;99.90
30825;DHT22;17550;45.486;12.222;2022-12-29T05:38:34;8.10;99.90
30825;DHT22;17550;45.486;12.222;2022-12-29T05:40:59;8.20;99.90
30825;DHT22;17550;45.486;12.222;2022-12-29T05:43:25;8.20;99.90
30825;DHT22;17550;45.486;12.222;2022-12-29T05:45:51;8.20;99.90
30825;DHT22;17550;45.486;12.222;2022-12-29T05:48:17;8.20;99.90
30825;DHT22;17550;45.486;12.222;2022-12-29T05:50:47;8.20;99.90
30825;DHT22;17550;45.486;12.222;2022-12-29T05:53:13;8.20;99.90
30825;DHT22;17550;45.486;12.222;2022-12-29T05:55:39;8.20;99.90
30825;DHT22;17550;45.486;12.222;2022-12-29T05:58:05;8.20;99.90
30825;DHT22;17550;45.486;12.222;2022-12-29T06:00:30;8.30;99.90
30825;DHT22;17550;45.486;12.222;2022-12-29T06:02:56;8.30;99.90
30825;DHT22;17550;45.486;12.222;2022-12-29T06:05:22;8.40;99.90
30825;DHT22;17550;45.486;12.222;2022-12-29T06:07:47;8.40;99.90
30825;DHT22;17550;45.486;12.222;2022-12-29T06:10:13;8.40;99.90
30825;DHT22;17550;45.486;12.222;2022-12-29T06:12:39;8.30;99.90
30825;DHT22;17550;45.486;12.222;2022-12-29T06:15:05;8.20;99.90
30825;DHT22;17550;45.486;12.222;2022-12-29T06:17:31;8.20;99.90
30825;DHT22;17550;45.486;12.222;2022-12-29T06:19:57;8.20;99.90
30825;DHT22;17550;45.486;12.222;2022-12-29T06:22:23;8.00;99.90
30825;DHT22;17550;45.486;12.222;2022-12-29T06:24:49;8.00;99.90
30825;DHT22;17550;45.486;12.222;2022-12-29T06:27:15;8.00;99.90
30825;DHT22;17550;45.486;12.222;2022-12-29T06:29:41;8.10;99.90
30825;DHT22;17550;45.486;12.222;2022-12-29T06:32:08;7.90;99.90
30825;DHT22;17550;45.486;12.222;2022-12-29T06:34:34;7.90;99.90
30825;DHT22;17550;45.486;12.222;2022-12-29T06:37:00;7.90;99.90
30825;DHT22;17550;45.486;12.222;2022-12-29T06:39:26;7.90;99.90
30825;DHT22;17550;45.486;12.222;2022-12-29T06:41:55;7.90;99.90
30825;DHT22;17550;45.486;12.222;2022-12-29T06:44:21;7.90;99.90
30825;DHT22;17550;45.486;12.222;2022-12-29T06:46:47;8.00;99.90
30825;DHT22;17550;45.486;12.222;2022-12-29T06:49:12;8.00;99.90
30825;DHT22;17550;45.486;12.222;2022-12-29T06:51:38;8.00;99.90
30825;DHT22;17550;45.486;12.222;2022-12-29T06:54:04;8.00;99.90
30825;DHT22;17550;45.486;12.222;2022-12-29T06:56:30;7.90;99.90
30825;DHT22;17550;45.486;12.222;2022-12-29T06:58:55;7.90;99.90
30825;DHT22;17550;45.486;12.222;2022-12-29T07:01:21;7.80;99.90
30825;DHT22;17550;45.486;12.222;2022-12-29T07:03:47;7.70;99.90
30825;DHT22;17550;45.486;12.222;2022-12-29T07:06:12;7.70;99.90
30825;DHT22;17550;45.486;12.222;2022-12-29T07:08:38;7.80;99.90
30825;DHT22;17550;45.486;12.222;2022-12-29T07:11:05;7.80;99.90
30825;DHT22;17550;45.486;12.222;2022-12-29T07:13:30;7.90;99.90
30825;DHT22;17550;45.486;12.222;2022-12-29T07:15:56;8.00;99.90
30825;DHT22;17550;45.486;12.222;2022-12-29T07:18:22;8.00;99.90
30825;DHT22;17550;45.486;12.222;2022-12-29T07:20:47;7.90;99.90
30825;DHT22;17550;45.486;12.222;2022-12-29T07:23:13;7.90;99.90
30825;DHT22;17550;45.486;12.222;2022-12-29T07:25:39;7.90;99.90
30825;DHT22;17550;45.486;12.222;2022-12-29T07:28:06;7.90;99.90
30825;DHT22;17550;45.486;12.222;2022-12-29T07:30:32;7.90;99.90
30825;DHT22;17550;45.486;12.222;2022-12-29T07:32:58;7.90;99.90
30825;DHT22;17550;45.486;12.222;2022-12-29T07:35:24;8.00;99.90
30825;DHT22;17550;45.486;12.222;2022-12-29T07:37:49;8.10;99.90
30825;DHT22;17550;45.486;12.222;2022-12-29T07:40:15;8.10;99.90
30825;DHT22;17550;45.486;12.222;2022-12-29T07:42:41;8.10;99.90
30825;DHT22;17550;45.486;12.222;2022-12-29T07:45:08;8.20;99.90
30825;DHT22;17550;45.486;12.222;2022-12-29T07:47:34;8.20;99.90
30825;DHT22;17550;45.486;12.222;2022-12-29T07:50:00;8.20;99.90
30825;DHT22;17550;45.486;12.222;2022-12-29T07:52:25;8.20;99.90
30825;DHT22;17550;45.486;12.222;2022-12-29T07:54:51;8.30;99.90
30825;DHT22;17550;45.486;12.222;2022-12-29T07:57:17;8.30;99.90
30825;DHT22;17550;45.486;12.222;2022-12-29T07:59:42;8.30;99.90
30825;DHT22;17550;45.486;12.222;2022-12-29T08:02:11;8.40;99.90
30825;DHT22;17550;45.486;12.222;2022-12-29T08:04:38;8.40;99.90
30825;DHT22;17550;45.486;12.222;2022-12-29T08:07:03;8.50;99.90
30825;DHT22;17550;45.486;12.222;2022-12-29T08:09:29;8.60;99.90
30825;DHT22;17550;45.486;12.222;2022-12-29T08:11:55;8.60;99.90
30825;DHT22;17550;45.486;12.222;2022-12-29T08:14:20;8.70;99.90
30825;DHT22;17550;45.486;12.222;2022-12-29T08:16:46;8.70;99.90
30825;DHT22;17550;45.486;12.222;2022-12-29T08:19:13;8.70;99.90
30825;DHT22;17550;45.486;12.222;2022-12-29T08:21:38;8.70;99.90
30825;DHT22;17550;45.486;12.222;2022-12-29T08:24:05;8.70;99.90
30825;DHT22;17550;45.486;12.222;2022-12-29T08:26:31;8.80;99.90
30825;DHT22;17550;45.486;12.222;2022-12-29T08:28:56;8.80;99.90
30825;DHT22;17550;45.486;12.222;2022-12-29T08:31:23;8.90;99.90
30825;DHT22;17550;45.486;12.222;2022-12-29T08:33:49;9.00;99.90
30825;DHT22;17550;45.486;12.222;2022-12-29T08:36:15;9.10;99.90
30825;DHT22;17550;45.486;12.222;2022-12-29T08:38:41;9.20;99.90
30825;DHT22;17550;45.486;12.222;2022-12-29T08:41:06;9.20;99.90
30825;DHT22;17550;45.486;12.222;2022-12-29T08:43:32;9.30;99.90
30825;DHT22;17550;45.486;12.222;2022-12-29T08:45:59;9.20;99.90
30825;DHT22;17550;45.486;12.222;2022-12-29T08:48:25;9.20;99.90
30825;DHT22;17550;45.486;12.222;2022-12-29T08:50:51;9.30;99.90
30825;DHT22;17550;45.486;12.222;2022-12-29T08:53:18;9.30;99.90
30825;DHT22;17550;45.486;12.222;2022-12-29T08:55:54;9.20;99.90
30825;DHT22;17550;45.486;12.222;2022-12-29T08:58:20;9.10;99.90
30825;DHT22;17550;45.486;12.222;2022-12-29T09:00:45;9.20;99.90
30825;DHT22;17550;45.486;12.222;2022-12-29T09:03:11;9.30;99.90
30825;DHT22;17550;45.486;12.222;2022-12-29T09:05:37;9.30;99.90
30825;DHT22;17550;45.486;12.222;2022-12-29T09:08:03;9.40;99.90
30825;DHT22;17550;45.486;12.222;2022-12-29T09:10:30;9.50;99.90
30825;DHT22;17550;45.486;12.222;2022-12-29T09:12:55;9.40;99.90
30825;DHT22;17550;45.486;12.222;2022-12-29T09:15:21;9.40;99.90
30825;DHT22;17550;45.486;12.222;2022-12-29T09:17:47;9.40;99.90
30825;DHT22;17550;45.486;12.222;2022-12-29T09:20:17;9.40;99.90
30825;DHT22;17550;45.486;12.222;2022-12-29T09:22:45;9.50;99.90
30825;DHT22;17550;45.486;12.222;2022-12-29T09:25:11;9.30;99.90
30825;DHT22;17550;45.486;12.222;2022-12-29T09:27:37;9.40;99.90
30825;DHT22;17550;45.486;12.222;2022-12-29T09:30:05;9.40;99.90
30825;DHT22;17550;45.486;12.222;2022-12-29T09:32:32;9.40;99.90
30825;DHT22;17550;45.486;12.222;2022-12-29T09:34:57;9.50;99.90
30825;DHT22;17550;45.486;12.222;2022-12-29T09:37:23;9.40;99.90
30825;DHT22;17550;45.486;12.222;2022-12-29T09:39:49;9.40;99.90
30825;DHT22;17550;45.486;12.222;2022-12-29T09:42:29;9.50;99.90
30825;DHT22;17550;45.486;12.222;2022-12-29T09:45:14;9.50;99.90
30825;DHT22;17550;45.486;12.222;2022-12-29T09:47:44;9.60;99.90
30825;DHT22;17550;45.486;12.222;2022-12-29T09:52:52;9.80;99.90
30825;DHT22;17550;45.486;12.222;2022-12-29T09:55:28;9.90;99.90
30825;DHT22;17550;45.486;12.222;2022-12-29T09:58:03;10.00;99.90
30825;DHT22;17550;45.486;12.222;2022-12-29T10:00:43;9.90;99.90
30825;DHT22;17550;45.486;12.222;2022-12-29T10:03:19;9.70;99.90
30825;DHT22;17550;45.486;12.222;2022-12-29T10:23:52;9.70;99.90
30825;DHT22;17550;45.486;12.222;2022-12-29T10:26:21;9.80;99.90
30825;DHT22;17550;45.486;12.222;2022-12-29T10:29:04;10.00;99.90
30825;DHT22;17550;45.486;12.222;2022-12-29T10:31:46;10.00;99.90
30825;DHT22;17550;45.486;12.222;2022-12-29T10:34:28;10.00;99.90
30825;DHT22;17550;45.486;12.222;2022-12-29T10:36:59;9.90;99.90
30825;DHT22;17550;45.486;12.222;2022-12-29T10:39:48;10.00;99.90
30825;DHT22;17550;45.486;12.222;2022-12-29T10:42:26;10.00;99.90
30825;DHT22;17550;45.486;12.222;2022-12-29T10:44:54;10.00;99.90
30825;DHT22;17550;45.486;12.222;2022-12-29T10:47:26;10.00;99.90
30825;DHT22;17550;45.486;12.222;2022-12-29T10:49:53;10.00;99.90
30825;DHT22;17550;45.486;12.222;2022-12-29T10:52:21;10.00;99.90
30825;DHT22;17550;45.486;12.222;2022-12-29T10:54:58;10.00;99.90
30825;DHT22;17550;45.486;12.222;2022-12-29T10:59:53;10.10;99.90
30825;DHT22;17550;45.486;12.222;2022-12-29T11:05:37;10.20;99.90
30825;DHT22;17550;45.486;12.222;2022-12-29T11:08:33;10.40;99.90
30825;DHT22;17550;45.486;12.222;2022-12-29T11:11:06;10.30;99.90
30825;DHT22;17550;45.486;12.222;2022-12-29T11:13:34;10.40;99.90
30825;DHT22;17550;45.486;12.222;2022-12-29T11:16:00;10.40;99.90
30825;DHT22;17550;45.486;12.222;2022-12-29T11:18:39;10.50;99.90
30825;DHT22;17550;45.486;12.222;2022-12-29T11:21:23;10.50;99.90
30825;DHT22;17550;45.486;12.222;2022-12-29T11:24:25;10.60;99.90
30825;DHT22;17550;45.486;12.222;2022-12-29T11:26:56;10.60;99.90
30825;DHT22;17550;45.486;12.222;2022-12-29T11:29:39;10.80;99.90
30825;DHT22;17550;45.486;12.222;2022-12-29T11:32:17;10.90;99.90
30825;DHT22;17550;45.486;12.222;2022-12-29T11:34:43;10.90;99.90
30825;DHT22;17550;45.486;12.222;2022-12-29T11:37:14;11.00;99.90
30825;DHT22;17550;45.486;12.222;2022-12-29T11:39:57;11.10;99.90
30825;DHT22;17550;45.486;12.222;2022-12-29T11:45:16;11.40;99.90
30825;DHT22;17550;45.486;12.222;2022-12-29T11:47:56;11.60;99.90
30825;DHT22;17550;45.486;12.222;2022-12-29T11:50:28;11.70;99.90
30825;DHT22;17550;45.486;12.222;2022-12-29T11:53:01;11.80;99.90
30825;DHT22;17550;45.486;12.222;2022-12-29T11:55:29;11.80;99.90
30825;DHT22;17550;45.486;12.222;2022-12-29T11:57:58;11.90;99.90
30825;DHT22;17550;45.486;12.222;2022-12-29T12:00:28;12.00;99.90
30825;DHT22;17550;45.486;12.222;2022-12-29T12:05:24;12.10;99.90
30825;DHT22;17550;45.486;12.222;2022-12-29T12:10:34;12.10;99.90
30825;DHT22;17550;45.486;12.222;2022-12-29T12:15:44;12.20;99.90
30825;DHT22;17550;45.486;12.222;2022-12-29T12:26:20;12.30;99.90
30825;DHT22;17550;45.486;12.222;2022-12-29T12:32:09;12.20;99.90
30825;DHT22;17550;45.486;12.222;2022-12-29T12:34:39;12.20;99.90
30825;DHT22;17550;45.486;12.222;2022-12-29T12:37:26;12.20;99.90
30825;DHT22;17550;45.486;12.222;2022-12-29T12:57:53;11.30;99.90
30825;DHT22;17550;45.486;12.222;2022-12-29T13:00:22;11.30;99.90
30825;DHT22;17550;45.486;12.222;2022-12-29T13:19:04;11.30;99.90
30825;DHT22;17550;45.486;12.222;2022-12-29T13:30:10;11.40;99.90
30825;DHT22;17550;45.486;12.222;2022-12-29T13:40:55;11.30;99.90
30825;DHT22;17550;45.486;12.222;2022-12-29T13:43:23;11.30;99.90
30825;DHT22;17550;45.486;12.222;2022-12-29T13:45:57;11.30;99.90
30825;DHT22;17550;45.486;12.222;2022-12-29T13:48:42;11.20;99.90
30825;DHT22;17550;45.486;12.222;2022-12-29T13:51:09;11.20;99.90
30825;DHT22;17550;45.486;12.222;2022-12-29T13:54:00;11.20;99.90
30825;DHT22;17550;45.486;12.222;2022-12-29T13:56:45;11.10;99.90
30825;DHT22;17550;45.486;12.222;2022-12-29T14:04:25;11.00;99.90
30825;DHT22;17550;45.486;12.222;2022-12-29T14:07:03;11.10;99.90
30825;DHT22;17550;45.486;12.222;2022-12-29T14:12:32;11.00;99.90
30825;DHT22;17550;45.486;12.222;2022-12-29T14:15:18;11.00;99.90
30825;DHT22;17550;45.486;12.222;2022-12-29T14:17:45;11.00;99.90
30825;DHT22;17550;45.486;12.222;2022-12-29T14:20:25;11.00;99.90
30825;DHT22;17550;45.486;12.222;2022-12-29T14:22:59;10.90;99.90
30825;DHT22;17550;45.486;12.222;2022-12-29T14:28:33;10.90;99.90
30825;DHT22;17550;45.486;12.222;2022-12-29T14:31:49;10.90;99.90
30825;DHT22;17550;45.486;12.222;2022-12-29T14:36:40;10.80;99.90
30825;DHT22;17550;45.486;12.222;2022-12-29T14:39:40;10.70;99.90
30825;DHT22;17550;45.486;12.222;2022-12-29T14:44:49;10.80;99.90
30825;DHT22;17550;45.486;12.222;2022-12-29T14:47:32;10.70;99.90
30825;DHT22;17550;45.486;12.222;2022-12-29T14:53:00;10.70;99.90
30825;DHT22;17550;45.486;12.222;2022-12-29T14:58:02;10.60;99.90
30825;DHT22;17550;45.486;12.222;2022-12-29T15:00:33;10.50;99.90
30825;DHT22;17550;45.486;12.222;2022-12-29T15:08:21;10.40;99.90
30825;DHT22;17550;45.486;12.222;2022-12-29T15:13:44;10.50;99.90
30825;DHT22;17550;45.486;12.222;2022-12-29T15:16:26;10.40;99.90
30825;DHT22;17550;45.486;12.222;2022-12-29T15:18:54;10.50;99.90
30825;DHT22;17550;45.486;12.222;2022-12-29T15:21:29;10.40;99.90
30825;DHT22;17550;45.486;12.222;2022-12-29T15:23:57;10.40;99.90
30825;DHT22;17550;45.486;12.222;2022-12-29T15:26:36;10.40;99.90
30825;DHT22;17550;45.486;12.222;2022-12-29T15:29:02;10.40;99.90
30825;DHT22;17550;45.486;12.222;2022-12-29T15:31:27;10.40;99.90
30825;DHT22;17550;45.486;12.222;2022-12-29T15:34:01;10.40;99.90
30825;DHT22;17550;45.486;12.222;2022-12-29T15:36:29;10.40;99.90
30825;DHT22;17550;45.486;12.222;2022-12-29T15:38:55;10.30;99.90
30825;DHT22;17550;45.486;12.222;2022-12-29T15:46:54;10.30;99.90
30825;DHT22;17550;45.486;12.222;2022-12-29T15:49:20;10.30;99.90
30825;DHT22;17550;45.486;12.222;2022-12-29T15:51:46;10.30;99.90
30825;DHT22;17550;45.486;12.222;2022-12-29T15:54:17;10.30;99.90
30825;DHT22;17550;45.486;12.222;2022-12-29T15:56:44;10.30;99.90
30825;DHT22;17550;45.486;12.222;2022-12-29T15:59:30;10.30;99.90
30825;DHT22;17550;45.486;12.222;2022-12-29T16:01:58;10.30;99.90
30825;DHT22;17550;45.486;12.222;2022-12-29T16:04:26;10.20;99.90
30825;DHT22;17550;45.486;12.222;2022-12-29T16:06:58;10.20;99.90
30825;DHT22;17550;45.486;12.222;2022-12-29T16:09:42;10.20;99.90
30825;DHT22;17550;45.486;12.222;2022-12-29T16:12:20;10.20;99.90
30825;DHT22;17550;45.486;12.222;2022-12-29T16:14:50;10.10;99.90
30825;DHT22;17550;45.486;12.222;2022-12-29T16:17:24;10.10;99.90
30825;DHT22;17550;45.486;12.222;2022-12-29T16:20:05;10.10;99.90
30825;DHT22;17550;45.486;12.222;2022-12-29T16:22:41;10.10;99.90
30825;DHT22;17550;45.486;12.222;2022-12-29T16:27:51;10.10;99.90
30825;DHT22;17550;45.486;12.222;2022-12-29T16:30:28;10.10;99.90
30825;DHT22;17550;45.486;12.222;2022-12-29T16:32:59;10.10;99.90
30825;DHT22;17550;45.486;12.222;2022-12-29T16:35:44;10.20;99.90
30825;DHT22;17550;45.486;12.222;2022-12-29T16:40:57;10.20;99.90
30825;DHT22;17550;45.486;12.222;2022-12-29T16:43:42;10.10;99.90
30825;DHT22;17550;45.486;12.222;2022-12-29T16:46:19;10.10;99.90
30825;DHT22;17550;45.486;12.222;2022-12-29T16:48:56;10.00;99.90
30825;DHT22;17550;45.486;12.222;2022-12-29T16:53:55;9.90;99.90
30825;DHT22;17550;45.486;12.222;2022-12-29T16:56:24;9.80;99.90
30825;DHT22;17550;45.486;12.222;2022-12-29T17:01:25;9.80;99.90
30825;DHT22;17550;45.486;12.222;2022-12-29T17:03:54;9.80;99.90
30825;DHT22;17550;45.486;12.222;2022-12-29T17:06:22;9.80;99.90
30825;DHT22;17550;45.486;12.222;2022-12-29T17:08:49;9.90;99.90
30825;DHT22;17550;45.486;12.222;2022-12-29T17:11:33;9.90;99.90
30825;DHT22;17550;45.486;12.222;2022-12-29T17:17:19;9.80;99.90
30825;DHT22;17550;45.486;12.222;2022-12-29T17:19:50;9.80;99.90
30825;DHT22;17550;45.486;12.222;2022-12-29T17:22:24;9.80;99.90
30825;DHT22;17550;45.486;12.222;2022-12-29T17:24:55;9.80;99.90
30825;DHT22;17550;45.486;12.222;2022-12-29T17:27:25;9.80;99.90
30825;DHT22;17550;45.486;12.222;2022-12-29T17:29:55;9.80;99.90
30825;DHT22;17550;45.486;12.222;2022-12-29T17:32:21;9.80;99.90
30825;DHT22;17550;45.486;12.222;2022-12-29T17:34:47;9.80;99.90
30825;DHT22;17550;45.486;12.222;2022-12-29T17:37:36;9.80;99.90
30825;DHT22;17550;45.486;12.222;2022-12-29T17:40:04;9.90;99.90
30825;DHT22;17550;45.486;12.222;2022-12-29T17:42:30;9.90;99.90
30825;DHT22;17550;45.486;12.222;2022-12-29T17:44:58;9.90;99.90
30825;DHT22;17550;45.486;12.222;2022-12-29T17:47:25;9.80;99.90
30825;DHT22;17550;45.486;12.222;2022-12-29T17:49:51;9.80;99.90
30825;DHT22;17550;45.486;12.222;2022-12-29T17:52:19;9.80;99.90
30825;DHT22;17550;45.486;12.222;2022-12-29T17:54:49;9.70;99.90
30825;DHT22;17550;45.486;12.222;2022-12-29T17:57:16;9.70;99.90
30825;DHT22;17550;45.486;12.222;2022-12-29T17:59:42;9.70;99.90
30825;DHT22;17550;45.486;12.222;2022-12-29T18:02:29;9.70;99.90
30825;DHT22;17550;45.486;12.222;2022-12-29T18:04:57;9.70;99.90
30825;DHT22;17550;45.486;12.222;2022-12-29T18:07:26;9.60;99.90
30825;DHT22;17550;45.486;12.222;2022-12-29T18:09:52;9.60;99.90
30825;DHT22;17550;45.486;12.222;2022-12-29T18:12:38;9.50;99.90
30825;DHT22;17550;45.486;12.222;2022-12-29T18:15:06;9.40;99.90
30825;DHT22;17550;45.486;12.222;2022-12-29T18:17:37;9.40;99.90
30825;DHT22;17550;45.486;12.222;2022-12-29T18:20:06;9.30;99.90
30825;DHT22;17550;45.486;12.222;2022-12-29T18:22:32;9.30;99.90
30825;DHT22;17550;45.486;12.222;2022-12-29T18:24:58;9.30;99.90
30825;DHT22;17550;45.486;12.222;2022-12-29T18:27:25;9.30;99.90
30825;DHT22;17550;45.486;12.222;2022-12-29T18:29:50;9.20;99.90
30825;DHT22;17550;45.486;12.222;2022-12-29T18:32:16;9.10;99.90
30825;DHT22;17550;45.486;12.222;2022-12-29T18:34:42;9.10;99.90
30825;DHT22;17550;45.486;12.222;2022-12-29T18:37:09;9.20;99.90
30825;DHT22;17550;45.486;12.222;2022-12-29T18:39:34;9.20;99.90
30825;DHT22;17550;45.486;12.222;2022-12-29T18:42:02;9.20;99.90
30825;DHT22;17550;45.486;12.222;2022-12-29T18:44:28;9.20;99.90
30825;DHT22;17550;45.486;12.222;2022-12-29T18:46:53;9.30;99.90
30825;DHT22;17550;45.486;12.222;2022-12-29T18:49:20;9.30;99.90